Terminal Aerodrome Forecast
Issued by NWS Bismarck, ND

Home | Current Version | Previous Version | Text Only | Print | Product List | Glossary On
Versions: 1 2 3 4 5 6 7 8 9 10 11 12 13 14 15 16
818
FTUS43 KBIS 211127
TAFISN
TAF
KISN 211127Z 2112/2212 06003KT P6SM VCSH BKN120
     FM211400 25005KT P6SM -SHRA SCT070 OVC080
     FM211800 28008KT P6SM BKN080 BKN100
     FM212300 30008KT P6SM FEW130 SCT140
     FM221100 01008KT P6SM BKN120 BKN140=

USA.gov is the U.S. government's official web portal to all federal, state and local government web resources and services.